Time;durP1;ratioP1;P1;durP2;ratioP2;P2;SDS_P1;SDS_P2;PMS_P1;PMS_P2;Temp;Humidity;BMP_temperature;BMP_pressure;BME280_temperature;BME280_humidity;BME280_pressure;Samples;Min_cycle;Max_cycle;Signal;HPM_P1;HPM_P2
2023/09/14 00:01:10;;;;;;;0.20;0.20;;;;;;;;;;5079176;28;20498;-73
2023/09/14 00:03:36;;;;;;;0.20;0.20;;;;;;;;;;5082793;28;20056;-73
2023/09/14 00:06:03;;;;;;;0.20;0.20;;;;;;;;;;5086232;28;20439;-74
2023/09/14 00:08:30;;;;;;;0.20;0.20;;;;;;;;;;5067902;28;20027;-73
2023/09/14 00:10:56;;;;;;;0.10;0.10;;;;;;;;;;5064577;28;20037;-72
2023/09/14 00:13:22;;;;;;;0.20;0.20;;;;;;;;;;5078718;28;20020;-73
2023/09/14 00:15:48;;;;;;;0.10;0.10;;;;;;;;;;5079018;28;20047;-73
2023/09/14 00:18:14;;;;;;;0.20;0.20;;;;;;;;;;5078821;28;20024;-73
2023/09/14 00:20:39;;;;;;;0.20;0.20;;;;;;;;;;5057300;28;20036;-73
2023/09/14 00:23:05;;;;;;;0.20;0.20;;;;;;;;;;5059339;28;20086;-73
2023/09/14 00:25:31;;;;;;;0.10;0.10;;;;;;;;;;5060337;28;20041;-72
2023/09/14 00:27:56;;;;;;;0.20;0.20;;;;;;;;;;5061196;28;20559;-73
2023/09/14 00:30:22;;;;;;;0.20;0.20;;;;;;;;;;5058735;28;20037;-74
2023/09/14 00:32:50;;;;;;;0.25;0.25;;;;;;;;;;5059606;28;20044;-73
2023/09/14 00:35:16;;;;;;;0.25;0.25;;;;;;;;;;5057748;28;20048;-74
2023/09/14 00:37:42;;;;;;;0.70;0.52;;;;;;;;;;5057508;28;20021;-74
2023/09/14 00:40:09;;;;;;;0.10;0.10;;;;;;;;;;5058522;28;20044;-72
2023/09/14 00:42:41;;;;;;;0.20;0.20;;;;;;;;;;5058331;28;20044;-74
2023/09/14 00:45:08;;;;;;;0.20;0.20;;;;;;;;;;5058118;28;20029;-73
2023/09/14 00:47:34;;;;;;;0.10;0.10;;;;;;;;;;5058546;28;20037;-73
2023/09/14 00:50:01;;;;;;;0.20;0.20;;;;;;;;;;5057897;28;20033;-73
2023/09/14 00:52:28;;;;;;;0.20;0.20;;;;;;;;;;5058483;28;20037;-73
2023/09/14 00:54:53;;;;;;;0.10;0.10;;;;;;;;;;5056455;28;20540;-74
2023/09/14 00:57:20;;;;;;;0.17;0.17;;;;;;;;;;5057293;28;20051;-73
2023/09/14 00:59:47;;;;;;;0.20;0.20;;;;;;;;;;5053579;28;20150;-73
2023/09/14 01:02:15;;;;;;;0.15;0.15;;;;;;;;;;5055110;28;20048;-73
2023/09/14 01:04:40;;;;;;;0.20;0.20;;;;;;;;;;5054083;28;20120;-72
2023/09/14 01:07:06;;;;;;;0.20;0.20;;;;;;;;;;5054721;28;20119;-73
2023/09/14 01:09:31;;;;;;;0.20;0.20;;;;;;;;;;5054663;28;20121;-72
2023/09/14 01:11:57;;;;;;;0.20;0.20;;;;;;;;;;5055281;28;20450;-73
2023/09/14 01:14:28;;;;;;;0.20;0.20;;;;;;;;;;5071943;28;20024;-72
2023/09/14 01:16:57;;;;;;;0.20;0.20;;;;;;;;;;5074984;28;20086;-72
2023/09/14 01:19:40;;;;;;;0.20;0.20;;;;;;;;;;5056678;28;20443;-72
2023/09/14 01:22:12;;;;;;;0.10;0.10;;;;;;;;;;5056767;28;20032;-73
2023/09/14 01:24:37;;;;;;;0.20;0.20;;;;;;;;;;5074540;28;20043;-73
2023/09/14 01:27:03;;;;;;;0.30;0.30;;;;;;;;;;5056699;28;20380;-73
2023/09/14 01:29:29;;;;;;;0.20;0.20;;;;;;;;;;5056552;28;20036;-73
2023/09/14 01:31:55;;;;;;;0.65;0.65;;;;;;;;;;5074575;28;20035;-73
2023/09/14 01:34:21;;;;;;;1.42;0.75;;;;;;;;;;5056831;28;20392;-72
2023/09/14 01:36:56;;;;;;;1.65;0.63;;;;;;;;;;5039749;28;20062;-73
2023/09/14 01:39:24;;;;;;;0.17;0.17;;;;;;;;;;5040130;28;20039;-73
2023/09/14 01:41:54;;;;;;;0.47;0.47;;;;;;;;;;5066186;28;20071;-73
2023/09/14 01:44:22;;;;;;;0.20;0.20;;;;;;;;;;5036366;28;20044;-74
2023/09/14 01:46:48;;;;;;;0.15;0.15;;;;;;;;;;5041231;28;20024;-74
2023/09/14 01:49:14;;;;;;;0.10;0.10;;;;;;;;;;5072153;28;20161;-75
2023/09/14 01:51:39;;;;;;;1.80;1.70;;;;;;;;;;5072613;28;20090;-75
2023/09/14 01:54:05;;;;;;;0.20;0.20;;;;;;;;;;5038395;28;20487;-75
2023/09/14 01:56:31;;;;;;;0.20;0.20;;;;;;;;;;5073565;28;20028;-75
2023/09/14 01:58:57;;;;;;;0.20;0.20;;;;;;;;;;5055536;28;20047;-74
2023/09/14 02:01:22;;;;;;;0.10;0.10;;;;;;;;;;5056072;28;20098;-75
2023/09/14 02:03:48;;;;;;;0.10;0.10;;;;;;;;;;5055342;28;20075;-75
2023/09/14 02:06:14;;;;;;;0.20;0.20;;;;;;;;;;5055747;28;20020;-75
2023/09/14 02:08:39;;;;;;;0.10;0.10;;;;;;;;;;5062913;28;20557;-75
2023/09/14 02:11:05;;;;;;;0.20;0.20;;;;;;;;;;5066902;28;20025;-74
2023/09/14 02:13:31;;;;;;;0.20;0.20;;;;;;;;;;5073658;28;20032;-74
2023/09/14 02:15:56;;;;;;;0.20;0.20;;;;;;;;;;5056004;28;20036;-74
2023/09/14 02:18:22;;;;;;;0.30;0.30;;;;;;;;;;5073387;28;20078;-73
2023/09/14 02:20:47;;;;;;;0.20;0.20;;;;;;;;;;5073595;28;20024;-74
2023/09/14 02:23:15;;;;;;;0.10;0.10;;;;;;;;;;5076092;28;20028;-74
2023/09/14 02:25:43;;;;;;;3.03;1.45;;;;;;;;;;5075914;28;20029;-73
2023/09/14 02:28:08;;;;;;;0.20;0.20;;;;;;;;;;5073718;28;20145;-74
2023/09/14 02:30:37;;;;;;;0.10;0.10;;;;;;;;;;5052315;28;20314;-74
2023/09/14 02:33:03;;;;;;;0.20;0.20;;;;;;;;;;5073520;28;20113;-74
2023/09/14 02:35:28;;;;;;;0.20;0.20;;;;;;;;;;5054053;28;20028;-74
2023/09/14 02:37:54;;;;;;;0.20;0.20;;;;;;;;;;5068839;28;20042;-73
2023/09/14 02:40:20;;;;;;;0.10;0.10;;;;;;;;;;5051916;28;20119;-74
2023/09/14 02:42:46;;;;;;;0.20;0.20;;;;;;;;;;5068945;28;20430;-74
2023/09/14 02:45:12;;;;;;;0.20;0.20;;;;;;;;;;5068885;28;20031;-75
2023/09/14 02:47:38;;;;;;;0.20;0.20;;;;;;;;;;5070070;28;20384;-74
2023/09/14 02:50:04;;;;;;;0.20;0.20;;;;;;;;;;5069062;28;20036;-73
2023/09/14 02:52:29;;;;;;;0.17;0.17;;;;;;;;;;5067870;28;20033;-74
2023/09/14 02:54:55;;;;;;;0.22;0.22;;;;;;;;;;5051358;28;20071;-72
2023/09/14 02:57:21;;;;;;;0.10;0.10;;;;;;;;;;5051446;28;20128;-73
2023/09/14 02:59:46;;;;;;;0.20;0.20;;;;;;;;;;5050653;28;20138;-74
2023/09/14 03:02:12;;;;;;;0.30;0.30;;;;;;;;;;5067183;28;20028;-73
2023/09/14 03:04:38;;;;;;;0.20;0.20;;;;;;;;;;5051456;28;20480;-73
2023/09/14 03:07:03;;;;;;;0.20;0.20;;;;;;;;;;5050523;28;20036;-73
2023/09/14 03:09:29;;;;;;;0.10;0.10;;;;;;;;;;5066461;28;20170;-73
2023/09/14 03:11:55;;;;;;;0.20;0.20;;;;;;;;;;5051764;28;20127;-74
2023/09/14 03:14:20;;;;;;;0.20;0.20;;;;;;;;;;5068704;28;20025;-74
2023/09/14 03:16:49;;;;;;;0.15;0.15;;;;;;;;;;5051001;28;20039;-73
2023/09/14 03:19:15;;;;;;;0.32;0.32;;;;;;;;;;5034689;28;20397;-75
2023/09/14 03:21:41;;;;;;;0.20;0.20;;;;;;;;;;5050608;28;20115;-73
2023/09/14 03:24:07;;;;;;;0.20;0.20;;;;;;;;;;5068709;28;20165;-72
2023/09/14 03:26:33;;;;;;;0.10;0.10;;;;;;;;;;5050933;28;20127;-73
2023/09/14 03:28:58;;;;;;;0.20;0.20;;;;;;;;;;5068770;28;20075;-73
2023/09/14 03:31:25;;;;;;;0.20;0.20;;;;;;;;;;5050765;28;20174;-72
2023/09/14 03:33:52;;;;;;;0.10;0.10;;;;;;;;;;5051327;28;20037;-76
2023/09/14 03:36:18;;;;;;;0.10;0.10;;;;;;;;;;5067343;28;20035;-74
2023/09/14 03:38:43;;;;;;;0.10;0.10;;;;;;;;;;5050486;28;20399;-76
2023/09/14 03:41:11;;;;;;;0.20;0.20;;;;;;;;;;5050958;28;20025;-74
2023/09/14 03:43:37;;;;;;;0.10;0.10;;;;;;;;;;5050990;28;20064;-75
2023/09/14 03:46:03;;;;;;;0.10;0.10;;;;;;;;;;5068685;28;20484;-73
2023/09/14 03:48:28;;;;;;;0.20;0.20;;;;;;;;;;5068210;28;20462;-72
2023/09/14 03:50:58;;;;;;;0.10;0.10;;;;;;;;;;5068769;28;20195;-75
2023/09/14 03:53:25;;;;;;;0.10;0.10;;;;;;;;;;5068381;28;20572;-73
2023/09/14 03:55:52;;;;;;;0.13;0.13;;;;;;;;;;5050612;28;20041;-73
2023/09/14 03:58:18;;;;;;;0.10;0.10;;;;;;;;;;5050102;28;20044;-73
2023/09/14 04:00:44;;;;;;;0.20;0.20;;;;;;;;;;5066279;28;20047;-73
2023/09/14 04:03:11;;;;;;;0.20;0.20;;;;;;;;;;5050346;28;20472;-74
2023/09/14 04:05:37;;;;;;;0.20;0.20;;;;;;;;;;5067945;28;20620;-75
2023/09/14 04:08:02;;;;;;;0.13;0.13;;;;;;;;;;5067314;28;20042;-75
2023/09/14 04:10:28;;;;;;;0.10;0.10;;;;;;;;;;5067765;28;20071;-75
2023/09/14 04:13:14;;;;;;;0.20;0.20;;;;;;;;;;5048278;28;20064;-76
2023/09/14 04:15:40;;;;;;;2.38;2.28;;;;;;;;;;5048749;28;20041;-75
2023/09/14 04:18:06;;;;;;;0.10;0.10;;;;;;;;;;5052202;28;20033;-76
2023/09/14 04:20:32;;;;;;;0.15;0.15;;;;;;;;;;5061118;28;20046;-75
2023/09/14 04:22:58;;;;;;;0.40;0.40;;;;;;;;;;5081154;28;20036;-75
2023/09/14 04:25:25;;;;;;;0.30;0.30;;;;;;;;;;5049710;28;20116;-73
2023/09/14 04:27:50;;;;;;;0.20;0.20;;;;;;;;;;5033847;28;20131;-73
2023/09/14 04:30:16;;;;;;;0.20;0.20;;;;;;;;;;5068107;28;20033;-73
2023/09/14 04:32:43;;;;;;;0.20;0.20;;;;;;;;;;5067987;28;20036;-74
2023/09/14 04:35:09;;;;;;;0.32;0.32;;;;;;;;;;5052102;28;20499;-73
2023/09/14 04:37:35;;;;;;;1.27;1.05;;;;;;;;;;5071208;28;20093;-73
2023/09/14 04:40:01;;;;;;;0.20;0.20;;;;;;;;;;5052818;28;20510;-75
2023/09/14 04:42:26;;;;;;;0.20;0.20;;;;;;;;;;5053085;28;20040;-76
2023/09/14 04:44:53;;;;;;;0.20;0.20;;;;;;;;;;5053664;28;20444;-75
2023/09/14 04:47:19;;;;;;;0.10;0.10;;;;;;;;;;5069992;28;20125;-74
2023/09/14 04:49:45;;;;;;;0.20;0.20;;;;;;;;;;5070710;28;20045;-75
2023/09/14 04:52:11;;;;;;;0.50;0.50;;;;;;;;;;5069355;28;20048;-75
2023/09/14 04:54:37;;;;;;;0.20;0.20;;;;;;;;;;5051873;28;20036;-74
2023/09/14 04:57:03;;;;;;;0.20;0.20;;;;;;;;;;5051183;28;20411;-74
2023/09/14 04:59:29;;;;;;;0.20;0.20;;;;;;;;;;5069319;28;20024;-75
2023/09/14 05:01:54;;;;;;;0.10;0.10;;;;;;;;;;5050887;28;20040;-74
2023/09/14 05:04:20;;;;;;;0.10;0.10;;;;;;;;;;5069084;28;20049;-75
2023/09/14 05:06:47;;;;;;;0.10;0.10;;;;;;;;;;5033426;28;20369;-71
2023/09/14 05:09:13;;;;;;;0.10;0.10;;;;;;;;;;5033131;28;20087;-73
2023/09/14 05:11:39;;;;;;;0.10;0.10;;;;;;;;;;5031956;28;20036;-71
2023/09/14 05:14:04;;;;;;;0.10;0.10;;;;;;;;;;5052543;28;20499;-74
2023/09/14 05:16:30;;;;;;;0.17;0.17;;;;;;;;;;5057806;28;20033;-68
2023/09/14 05:18:56;;;;;;;0.20;0.20;;;;;;;;;;5030685;28;20520;-68
2023/09/14 05:21:22;;;;;;;0.20;0.20;;;;;;;;;;5030684;28;20041;-69
2023/09/14 05:23:48;;;;;;;0.20;0.20;;;;;;;;;;5030789;28;20074;-68
2023/09/14 05:26:13;;;;;;;0.30;0.30;;;;;;;;;;5031110;28;20041;-67
2023/09/14 05:28:39;;;;;;;0.20;0.20;;;;;;;;;;5049206;28;20029;-67
2023/09/14 05:31:05;;;;;;;0.20;0.20;;;;;;;;;;5063497;28;20035;-67
2023/09/14 05:33:30;;;;;;;1.05;1.00;;;;;;;;;;5049564;28;20025;-67
2023/09/14 05:35:56;;;;;;;0.45;0.35;;;;;;;;;;5058943;28;20025;-68
2023/09/14 05:38:22;;;;;;;0.82;0.82;;;;;;;;;;5059981;28;20060;-67
2023/09/14 05:40:50;;;;;;;0.38;0.38;;;;;;;;;;5033621;28;20031;-66
2023/09/14 05:43:16;;;;;;;0.30;0.30;;;;;;;;;;5040133;28;20036;-68
2023/09/14 05:45:42;;;;;;;0.38;0.38;;;;;;;;;;5040178;28;20427;-68
2023/09/14 05:48:07;;;;;;;0.57;0.57;;;;;;;;;;5049247;28;20029;-68
2023/09/14 05:50:35;;;;;;;0.15;0.15;;;;;;;;;;5032462;28;20457;-67
2023/09/14 05:53:02;;;;;;;1.08;1.08;;;;;;;;;;5056485;28;20040;-67
2023/09/14 05:55:27;;;;;;;0.52;0.52;;;;;;;;;;5034998;28;20037;-67
2023/09/14 05:57:54;;;;;;;0.20;0.20;;;;;;;;;;5032518;28;20399;-66
2023/09/14 06:00:19;;;;;;;0.30;0.30;;;;;;;;;;5053585;28;20133;-67
2023/09/14 06:02:50;;;;;;;3.83;1.42;;;;;;;;;;5052133;28;20051;-67
2023/09/14 06:05:15;;;;;;;0.20;0.20;;;;;;;;;;5052214;28;20032;-69
2023/09/14 06:07:41;;;;;;;0.20;0.20;;;;;;;;;;5052053;28;20036;-67
2023/09/14 06:10:07;;;;;;;0.20;0.20;;;;;;;;;;5069539;28;20787;-68
2023/09/14 06:12:33;;;;;;;0.20;0.20;;;;;;;;;;5035792;28;20032;-68
2023/09/14 06:14:58;;;;;;;0.13;0.13;;;;;;;;;;5072120;28;20033;-67
2023/09/14 06:17:24;;;;;;;0.22;0.22;;;;;;;;;;5054409;28;20036;-66
2023/09/14 06:19:49;;;;;;;1.52;1.42;;;;;;;;;;5085599;28;20032;-66
2023/09/14 06:22:15;;;;;;;0.43;0.43;;;;;;;;;;5051823;28;20039;-67
2023/09/14 06:24:40;;;;;;;0.28;0.28;;;;;;;;;;5070047;28;20028;-67
2023/09/14 06:27:06;;;;;;;0.20;0.20;;;;;;;;;;5070475;28;20376;-67
2023/09/14 06:29:31;;;;;;;0.20;0.20;;;;;;;;;;5063515;28;20032;-67
2023/09/14 06:31:57;;;;;;;0.20;0.20;;;;;;;;;;5033731;28;20056;-67
2023/09/14 06:34:23;;;;;;;0.47;0.32;;;;;;;;;;5049374;28;20104;-67
2023/09/14 06:36:48;;;;;;;1.27;0.85;;;;;;;;;;5031808;28;20119;-67
2023/09/14 06:39:14;;;;;;;0.20;0.20;;;;;;;;;;5015584;28;20032;-70
2023/09/14 06:41:40;;;;;;;0.20;0.20;;;;;;;;;;5032006;28;20099;-67
2023/09/14 06:44:06;;;;;;;0.20;0.20;;;;;;;;;;5049376;28;20041;-67
2023/09/14 06:46:31;;;;;;;0.20;0.20;;;;;;;;;;5049645;28;20451;-67
2023/09/14 06:48:57;;;;;;;0.20;0.20;;;;;;;;;;5049634;28;20037;-67
2023/09/14 06:51:22;;;;;;;0.20;0.20;;;;;;;;;;5031712;28;20029;-66
2023/09/14 06:53:48;;;;;;;0.20;0.20;;;;;;;;;;5031322;28;20029;-67
2023/09/14 06:56:15;;;;;;;0.20;0.20;;;;;;;;;;5048753;28;20385;-68
2023/09/14 06:58:40;;;;;;;0.10;0.10;;;;;;;;;;5049154;28;20318;-68
2023/09/14 07:01:06;;;;;;;0.20;0.20;;;;;;;;;;5053975;28;20039;-68
2023/09/14 07:03:32;;;;;;;0.30;0.30;;;;;;;;;;5050887;28;20072;-69
2023/09/14 07:05:58;;;;;;;0.20;0.20;;;;;;;;;;5034072;28;20032;-67
2023/09/14 07:08:24;;;;;;;0.20;0.20;;;;;;;;;;5032514;28;20039;-69
2023/09/14 07:10:49;;;;;;;0.20;0.20;;;;;;;;;;5048772;28;20033;-68
2023/09/14 07:13:15;;;;;;;0.20;0.20;;;;;;;;;;5066083;28;20040;-67
2023/09/14 07:15:41;;;;;;;0.20;0.20;;;;;;;;;;5067470;28;20029;-69
2023/09/14 07:18:06;;;;;;;1.65;1.55;;;;;;;;;;5050011;28;20403;-68
2023/09/14 07:20:32;;;;;;;0.20;0.20;;;;;;;;;;5048027;28;20024;-67
2023/09/14 07:22:58;;;;;;;0.30;0.30;;;;;;;;;;5051170;28;20039;-67
2023/09/14 07:25:24;;;;;;;4.35;2.03;;;;;;;;;;5033109;28;20029;-67
2023/09/14 07:27:50;;;;;;;0.20;0.20;;;;;;;;;;5051179;28;20036;-67
2023/09/14 07:30:15;;;;;;;0.35;0.35;;;;;;;;;;5067933;28;20032;-69
2023/09/14 07:32:41;;;;;;;0.20;0.20;;;;;;;;;;5067719;28;20387;-68
2023/09/14 07:35:10;;;;;;;0.30;0.30;;;;;;;;;;5068639;28;20567;-67
2023/09/14 07:37:36;;;;;;;0.20;0.20;;;;;;;;;;5033712;28;20062;-68
2023/09/14 07:40:03;;;;;;;0.35;0.35;;;;;;;;;;5068796;28;20040;-67
2023/09/14 07:42:28;;;;;;;0.50;0.50;;;;;;;;;;5033426;28;20036;-67
2023/09/14 07:44:54;;;;;;;0.30;0.30;;;;;;;;;;5050690;28;20051;-68
2023/09/14 07:47:24;;;;;;;0.30;0.30;;;;;;;;;;5031821;28;20039;-67
2023/09/14 07:49:50;;;;;;;4.43;3.10;;;;;;;;;;5034310;28;20083;-67
2023/09/14 07:52:15;;;;;;;0.22;0.22;;;;;;;;;;5047237;28;20056;-68
2023/09/14 07:54:41;;;;;;;0.85;0.82;;;;;;;;;;5050034;28;20075;-67
2023/09/14 07:57:06;;;;;;;0.82;0.73;;;;;;;;;;5068220;28;20040;-67
2023/09/14 07:59:32;;;;;;;2.17;1.05;;;;;;;;;;5068500;28;20031;-67
2023/09/14 08:01:57;;;;;;;3.58;2.25;;;;;;;;;;5067665;28;20369;-68
2023/09/14 08:04:23;;;;;;;0.63;0.50;;;;;;;;;;5067143;28;20043;-67
2023/09/14 08:06:48;;;;;;;0.60;0.60;;;;;;;;;;5064894;28;20028;-67
2023/09/14 08:09:14;;;;;;;0.25;0.25;;;;;;;;;;5071480;28;20409;-67
2023/09/14 08:11:41;;;;;;;5.28;4.18;;;;;;;;;;5073155;28;20048;-66
2023/09/14 08:14:06;;;;;;;0.30;0.30;;;;;;;;;;5054590;28;20033;-67
2023/09/14 08:16:32;;;;;;;1.42;1.33;;;;;;;;;;5054497;28;20116;-67
2023/09/14 08:18:58;;;;;;;0.20;0.20;;;;;;;;;;5053316;28;20064;-67
2023/09/14 08:21:24;;;;;;;3.40;2.25;;;;;;;;;;5049586;28;20029;-67
2023/09/14 08:23:50;;;;;;;0.55;0.40;;;;;;;;;;5068825;28;20087;-66
2023/09/14 08:26:15;;;;;;;0.70;0.70;;;;;;;;;;5052120;28;20102;-67
2023/09/14 08:28:41;;;;;;;0.20;0.20;;;;;;;;;;5053639;28;20033;-65
2023/09/14 08:31:07;;;;;;;2.33;2.17;;;;;;;;;;5069943;28;20036;-70
2023/09/14 08:33:32;;;;;;;0.20;0.20;;;;;;;;;;5053661;28;20040;-67
2023/09/14 08:35:58;;;;;;;1.67;1.40;;;;;;;;;;5071732;28;20051;-68
2023/09/14 08:38:25;;;;;;;0.25;0.25;;;;;;;;;;5051942;28;20059;-67
2023/09/14 08:40:55;;;;;;;0.22;0.22;;;;;;;;;;5036067;28;20033;-67
2023/09/14 08:43:21;;;;;;;13.05;1.50;;;;;;;;;;5053419;28;20040;-67
2023/09/14 08:45:50;;;;;;;1.55;1.45;;;;;;;;;;5070754;28;20036;-68
2023/09/14 08:48:17;;;;;;;1.60;1.33;;;;;;;;;;5071182;28;20048;-67
2023/09/14 08:50:43;;;;;;;1.75;1.50;;;;;;;;;;5033589;28;20380;-69
2023/09/14 08:53:11;;;;;;;0.22;0.22;;;;;;;;;;5054077;28;20051;-67
2023/09/14 08:55:37;;;;;;;0.30;0.30;;;;;;;;;;5051329;28;20163;-67
2023/09/14 08:58:03;;;;;;;4.72;3.08;;;;;;;;;;5033244;28;20484;-69
2023/09/14 09:00:30;;;;;;;1.33;1.23;;;;;;;;;;5051188;28;20094;-67
2023/09/14 09:02:56;;;;;;;0.77;0.77;;;;;;;;;;5054350;28;20407;-67
2023/09/14 09:05:24;;;;;;;0.60;0.60;;;;;;;;;;5051628;28;20024;-66
2023/09/14 09:07:51;;;;;;;0.30;0.30;;;;;;;;;;5042176;28;20031;-69
2023/09/14 09:10:16;;;;;;;0.30;0.30;;;;;;;;;;5035779;28;20028;-67
2023/09/14 09:12:42;;;;;;;0.35;0.35;;;;;;;;;;5052986;28;20388;-67
2023/09/14 09:15:09;;;;;;;0.30;0.30;;;;;;;;;;5053338;28;20503;-67
2023/09/14 09:17:39;;;;;;;0.20;0.20;;;;;;;;;;5036306;28;20032;-67
2023/09/14 09:20:14;;;;;;;0.75;0.75;;;;;;;;;;5051405;28;20047;-68
2023/09/14 09:22:46;;;;;;;0.60;0.60;;;;;;;;;;5032511;28;20087;-68
2023/09/14 09:25:12;;;;;;;0.30;0.30;;;;;;;;;;5049585;28;20047;-69
2023/09/14 09:27:41;;;;;;;1.73;0.98;;;;;;;;;;5050653;28;20029;-68
2023/09/14 09:30:08;;;;;;;0.30;0.30;;;;;;;;;;5050384;28;20033;-68
2023/09/14 09:32:36;;;;;;;3.10;1.65;;;;;;;;;;5052426;28;20064;-68
2023/09/14 09:35:21;;;;;;;0.38;0.38;;;;;;;;;;5051763;28;20082;-72
2023/09/14 09:37:48;;;;;;;0.35;0.35;;;;;;;;;;5068343;28;20400;-68
2023/09/14 09:40:18;;;;;;;0.30;0.30;;;;;;;;;;5051519;28;20032;-69
2023/09/14 09:42:44;;;;;;;0.30;0.30;;;;;;;;;;5050309;28;20481;-70
2023/09/14 09:45:11;;;;;;;0.30;0.30;;;;;;;;;;5050502;28;20047;-68
2023/09/14 09:47:37;;;;;;;0.43;0.43;;;;;;;;;;5015924;28;20017;-69
2023/09/14 09:50:07;;;;;;;0.30;0.30;;;;;;;;;;5050220;28;20033;-69
2023/09/14 09:52:33;;;;;;;0.32;0.32;;;;;;;;;;5049985;28;20108;-69
2023/09/14 09:54:59;;;;;;;0.35;0.35;;;;;;;;;;5051162;28;20452;-68
2023/09/14 09:57:29;;;;;;;0.50;0.45;;;;;;;;;;5070463;28;20946;-68
2023/09/14 09:59:55;;;;;;;0.40;0.40;;;;;;;;;;5051253;28;20040;-68
2023/09/14 10:02:29;;;;;;;0.30;0.30;;;;;;;;;;5051076;28;20052;-67
2023/09/14 10:04:55;;;;;;;0.45;0.45;;;;;;;;;;5069888;28;20070;-67
2023/09/14 10:07:21;;;;;;;0.35;0.35;;;;;;;;;;5068275;28;20036;-67
2023/09/14 10:09:49;;;;;;;0.30;0.30;;;;;;;;;;5053616;28;20028;-66
2023/09/14 10:12:15;;;;;;;0.30;0.30;;;;;;;;;;5070055;28;20037;-67
2023/09/14 10:14:42;;;;;;;0.30;0.30;;;;;;;;;;5035195;28;20392;-68
2023/09/14 10:17:10;;;;;;;0.43;0.43;;;;;;;;;;5035925;28;20036;-67
2023/09/14 10:19:38;;;;;;;0.30;0.30;;;;;;;;;;5069912;28;20056;-68
2023/09/14 10:22:04;;;;;;;0.55;0.55;;;;;;;;;;5048632;28;20033;-69
2023/09/14 10:24:30;;;;;;;0.35;0.35;;;;;;;;;;5060517;28;20090;-67
2023/09/14 10:26:56;;;;;;;0.30;0.30;;;;;;;;;;5062681;28;20177;-68
2023/09/14 10:29:23;;;;;;;0.30;0.30;;;;;;;;;;5049929;28;20024;-68
2023/09/14 10:31:50;;;;;;;0.85;0.85;;;;;;;;;;5024135;28;20495;-67
2023/09/14 10:34:16;;;;;;;0.40;0.40;;;;;;;;;;5048706;28;20040;-69
2023/09/14 10:36:43;;;;;;;0.50;0.50;;;;;;;;;;5085321;28;20521;-68
2023/09/14 10:39:10;;;;;;;0.40;0.40;;;;;;;;;;5059593;28;20036;-67
2023/09/14 10:41:36;;;;;;;7.82;7.28;;;;;;;;;;5035359;28;20029;-68
2023/09/14 10:44:03;;;;;;;2.15;0.93;;;;;;;;;;5050962;28;20033;-66
2023/09/14 10:46:33;;;;;;;0.40;0.40;;;;;;;;;;5034366;28;20404;-67
2023/09/14 10:48:59;;;;;;;0.25;0.25;;;;;;;;;;5014918;28;20021;-67
2023/09/14 10:51:26;;;;;;;0.30;0.30;;;;;;;;;;5034581;28;20434;-66
2023/09/14 10:53:51;;;;;;;0.38;0.38;;;;;;;;;;5062801;28;20028;-66
2023/09/14 10:56:21;;;;;;;0.57;0.57;;;;;;;;;;5061062;28;20037;-66
2023/09/14 10:58:51;;;;;;;0.40;0.40;;;;;;;;;;5035154;28;20147;-65
2023/09/14 11:01:27;;;;;;;0.30;0.30;;;;;;;;;;5034568;28;20032;-67
2023/09/14 11:04:05;;;;;;;0.30;0.30;;;;;;;;;;5035433;28;20044;-67
2023/09/14 11:06:40;;;;;;;0.50;0.50;;;;;;;;;;5051338;28;20041;-68
2023/09/14 11:09:06;;;;;;;4.50;0.93;;;;;;;;;;5069171;28;20320;-67
2023/09/14 11:11:39;;;;;;;0.60;0.60;;;;;;;;;;5068979;28;20116;-67
2023/09/14 11:14:08;;;;;;;0.50;0.50;;;;;;;;;;5049953;28;20164;-69
2023/09/14 11:16:40;;;;;;;0.65;0.60;;;;;;;;;;5050024;28;20136;-67
2023/09/14 11:19:06;;;;;;;1.83;1.40;;;;;;;;;;5034506;28;20040;-66
2023/09/14 11:21:31;;;;;;;1.27;0.80;;;;;;;;;;5062620;28;20504;-68
2023/09/14 11:23:58;;;;;;;0.40;0.40;;;;;;;;;;5039124;28;20033;-68
2023/09/14 11:26:30;;;;;;;4.03;2.08;;;;;;;;;;5031238;28;20036;-68
2023/09/14 11:28:56;;;;;;;0.85;0.70;;;;;;;;;;5030948;28;20036;-67
2023/09/14 11:31:29;;;;;;;0.52;0.52;;;;;;;;;;5053181;28;20029;-67
2023/09/14 11:33:54;;;;;;;0.40;0.40;;;;;;;;;;5054802;28;20044;-67
2023/09/14 11:36:20;;;;;;;2.47;1.30;;;;;;;;;;5062397;28;20028;-66
2023/09/14 11:38:46;;;;;;;0.63;0.63;;;;;;;;;;5065764;28;20037;-66
2023/09/14 11:41:30;;;;;;;2.22;1.02;;;;;;;;;;5064806;28;20038;-69
2023/09/14 11:44:04;;;;;;;0.73;0.73;;;;;;;;;;5067742;28;20058;-66
2023/09/14 11:46:29;;;;;;;4.15;1.00;;;;;;;;;;5034247;28;20032;-66
2023/09/14 11:48:55;;;;;;;0.77;0.75;;;;;;;;;;5068498;28;20044;-66
2023/09/14 11:51:24;;;;;;;0.30;0.30;;;;;;;;;;5032707;28;20105;-66
2023/09/14 11:53:54;;;;;;;1.77;1.35;;;;;;;;;;5065332;28;20037;-67
2023/09/14 11:56:19;;;;;;;1.70;1.17;;;;;;;;;;5068097;28;20036;-68
2023/09/14 11:58:45;;;;;;;0.70;0.60;;;;;;;;;;5050599;28;20043;-69
2023/09/14 12:01:12;;;;;;;1.13;0.80;;;;;;;;;;5033036;28;20033;-73
2023/09/14 12:03:38;;;;;;;0.40;0.40;;;;;;;;;;5049826;28;20039;-73
2023/09/14 12:06:04;;;;;;;0.50;0.50;;;;;;;;;;5066441;28;20029;-73
2023/09/14 12:08:30;;;;;;;1.20;1.10;;;;;;;;;;5066044;28;20028;-73
2023/09/14 12:10:56;;;;;;;0.30;0.30;;;;;;;;;;5064477;28;20032;-73
2023/09/14 12:13:22;;;;;;;0.50;0.50;;;;;;;;;;5065379;28;20028;-73
2023/09/14 12:15:55;;;;;;;0.30;0.30;;;;;;;;;;5066966;28;20032;-73
2023/09/14 12:18:21;;;;;;;0.80;0.80;;;;;;;;;;5064267;28;20048;-73
2023/09/14 12:20:47;;;;;;;1.23;1.13;;;;;;;;;;5048883;28;20036;-72
2023/09/14 12:23:13;;;;;;;0.50;0.50;;;;;;;;;;5050430;28;20029;-73
2023/09/14 12:25:39;;;;;;;0.30;0.30;;;;;;;;;;5057044;28;20028;-72
2023/09/14 12:28:05;;;;;;;0.65;0.65;;;;;;;;;;5047772;28;20128;-72
2023/09/14 12:30:32;;;;;;;0.40;0.40;;;;;;;;;;5030377;28;20095;-73
2023/09/14 12:32:58;;;;;;;0.50;0.50;;;;;;;;;;5058011;28;20028;-73
2023/09/14 12:35:24;;;;;;;0.40;0.40;;;;;;;;;;5057068;28;20367;-72
2023/09/14 12:37:53;;;;;;;0.40;0.40;;;;;;;;;;5059318;28;20059;-73
2023/09/14 12:40:19;;;;;;;;;;;;;;;;;;5066326;28;20097;-73
2023/09/14 12:42:44;;;;;;;0.57;0.57;;;;;;;;;;5063775;28;19916;-73
2023/09/14 12:45:11;;;;;;;0.30;0.30;;;;;;;;;;5054666;28;20510;-72
2023/09/14 12:47:37;;;;;;;1.02;0.98;;;;;;;;;;5066200;28;20055;-72
2023/09/14 12:50:04;;;;;;;3.58;2.08;;;;;;;;;;5067975;28;20029;-72
2023/09/14 12:52:31;;;;;;;0.52;0.52;;;;;;;;;;5066991;28;20503;-72
2023/09/14 12:55:05;;;;;;;0.70;0.70;;;;;;;;;;5066600;28;20044;-72
2023/09/14 12:57:34;;;;;;;1.13;0.90;;;;;;;;;;5071309;28;20170;-73
2023/09/14 13:00:11;;;;;;;0.75;0.70;;;;;;;;;;5053368;28;20085;-73
2023/09/14 13:02:48;;;;;;;0.47;0.47;;;;;;;;;;5070628;28;20035;-73
2023/09/14 13:05:14;;;;;;;0.93;0.80;;;;;;;;;;5069018;28;20036;-72
2023/09/14 13:07:47;;;;;;;0.70;0.70;;;;;;;;;;5069556;28;20048;-72
2023/09/14 13:10:14;;;;;;;2.05;1.90;;;;;;;;;;5068771;28;20032;-73
2023/09/14 13:13:10;;;;;;;1.83;1.52;;;;;;;;;;5051161;28;20037;-73
2023/09/14 13:15:39;;;;;;;0.93;0.60;;;;;;;;;;5051777;28;20058;-73
2023/09/14 13:18:06;;;;;;;0.70;0.65;;;;;;;;;;5051779;28;20072;-72
2023/09/14 13:20:33;;;;;;;0.45;0.45;;;;;;;;;;5070736;28;20033;-72
2023/09/14 13:23:00;;;;;;;2.03;1.33;;;;;;;;;;5070708;28;20043;-72
2023/09/14 13:25:25;;;;;;;0.40;0.40;;;;;;;;;;5070482;28;20049;-71
2023/09/14 13:27:52;;;;;;;0.73;0.63;;;;;;;;;;5071226;28;20033;-72
2023/09/14 13:30:18;;;;;;;0.93;0.93;;;;;;;;;;5070237;28;20039;-72
2023/09/14 13:32:46;;;;;;;1.00;0.65;;;;;;;;;;5070781;28;20028;-72
2023/09/14 13:35:12;;;;;;;1.15;0.98;;;;;;;;;;5070538;28;20476;-72
2023/09/14 13:37:39;;;;;;;3.40;1.25;;;;;;;;;;5070639;28;20250;-71
2023/09/14 13:40:18;;;;;;;3.83;1.95;;;;;;;;;;5070344;28;20042;-72
2023/09/14 13:42:57;;;;;;;0.82;0.70;;;;;;;;;;5070634;28;20035;-71
2023/09/14 13:45:23;;;;;;;;;;;;;;;;;;5052525;28;20045;-72
2023/09/14 13:47:50;;;;;;;0.68;0.68;;;;;;;;;;5070170;28;20271;-72
2023/09/14 13:50:17;;;;;;;0.73;0.73;;;;;;;;;;5069867;28;20052;-72
2023/09/14 13:52:43;;;;;;;0.30;0.30;;;;;;;;;;5070779;28;20029;-73
2023/09/14 13:55:09;;;;;;;0.20;0.20;;;;;;;;;;5070510;28;20043;-72
2023/09/14 13:57:36;;;;;;;0.60;0.60;;;;;;;;;;5070360;28;20070;-73
2023/09/14 14:00:04;;;;;;;0.95;0.68;;;;;;;;;;5067435;28;20423;-73
2023/09/14 14:02:36;;;;;;;0.50;0.50;;;;;;;;;;5045229;28;20549;-72
2023/09/14 14:05:03;;;;;;;0.68;0.60;;;;;;;;;;5059312;28;20071;-72
2023/09/14 14:07:28;;;;;;;2.08;1.05;;;;;;;;;;5069564;28;20028;-72
2023/09/14 14:09:54;;;;;;;0.80;0.80;;;;;;;;;;5069578;28;20032;-73
2023/09/14 14:12:19;;;;;;;0.70;0.65;;;;;;;;;;5040756;28;20024;-72
2023/09/14 14:14:45;;;;;;;0.50;0.50;;;;;;;;;;5069585;28;20089;-73
2023/09/14 14:17:10;;;;;;;1.23;1.02;;;;;;;;;;5069448;28;20041;-73
2023/09/14 14:19:36;;;;;;;0.63;0.50;;;;;;;;;;5063765;28;20111;-73
2023/09/14 14:22:02;;;;;;;0.68;0.68;;;;;;;;;;5050071;28;20480;-73
2023/09/14 14:24:30;;;;;;;0.50;0.50;;;;;;;;;;5049684;28;20147;-73
2023/09/14 14:26:56;;;;;;;0.30;0.30;;;;;;;;;;5049745;28;20044;-72
2023/09/14 14:29:22;;;;;;;0.50;0.50;;;;;;;;;;5057367;28;20036;-72
2023/09/14 14:31:47;;;;;;;0.47;0.47;;;;;;;;;;5058176;28;20495;-73
2023/09/14 14:34:14;;;;;;;0.60;0.60;;;;;;;;;;5031815;28;20033;-72
2023/09/14 14:36:41;;;;;;;0.30;0.30;;;;;;;;;;5051444;28;20032;-72
2023/09/14 14:39:08;;;;;;;0.30;0.30;;;;;;;;;;5052861;28;20496;-72
2023/09/14 14:41:33;;;;;;;0.30;0.30;;;;;;;;;;5058971;28;20540;-72